createdAt,value
2017-11-05T00:00:13.265Z,11.43
2017-11-05T00:01:19.072Z,11.46
2017-11-05T00:02:25.546Z,11.48
2017-11-05T00:03:31.578Z,11.47
2017-11-05T00:04:37.340Z,11.45
2017-11-05T00:05:43.092Z,11.45
2017-11-05T00:06:48.934Z,11.46
2017-11-05T00:07:54.688Z,11.47
2017-11-05T00:09:00.441Z,11.45
2017-11-05T00:10:05.254Z,11.41
2017-11-05T00:11:10.809Z,11.43
2017-11-05T00:12:16.596Z,11.44
2017-11-05T00:13:22.360Z,11.40
2017-11-05T00:14:28.124Z,11.39
2017-11-05T00:15:33.881Z,11.36
2017-11-05T00:16:40.399Z,11.40
2017-11-05T00:17:46.405Z,11.37
2017-11-05T00:18:52.169Z,11.36
2017-11-05T00:19:57.934Z,11.34
2017-11-05T00:21:03.681Z,11.34
2017-11-05T00:22:08.513Z,11.33
2017-11-05T00:23:14.308Z,11.32
2017-11-05T00:24:20.073Z,11.30
2017-11-05T00:25:25.874Z,11.31
2017-11-05T00:26:32.404Z,11.30
2017-11-05T00:27:38.172Z,11.28
2017-11-05T00:28:44.733Z,11.34
2017-11-05T00:29:51.261Z,11.30
2017-11-05T00:30:57.028Z,11.25
2017-11-05T00:32:03.548Z,11.24
2017-11-05T00:33:09.308Z,11.24
2017-11-05T00:34:15.096Z,11.25
2017-11-05T00:35:20.851Z,11.28
2017-11-05T00:36:26.605Z,11.25
2017-11-05T00:37:32.364Z,11.26
2017-11-05T00:38:38.331Z,11.22
2017-11-05T00:39:44.114Z,11.21
2017-11-05T00:40:49.917Z,11.23
2017-11-05T00:41:56.445Z,11.23
2017-11-05T00:43:02.205Z,11.23
2017-11-05T00:44:08.110Z,11.20
2017-11-05T00:45:13.889Z,11.13
2017-11-05T00:46:19.649Z,11.17
2017-11-05T00:47:26.181Z,11.12
2017-11-05T00:48:31.941Z,11.10
2017-11-05T00:49:37.932Z,11.13
2017-11-05T00:50:43.718Z,11.15
2017-11-05T00:51:49.477Z,11.13
2017-11-05T00:52:56.015Z,11.14
2017-11-05T00:54:01.797Z,11.13
2017-11-05T00:55:08.329Z,11.14
2017-11-05T00:56:14.443Z,11.14
2017-11-05T00:57:20.225Z,11.13
2017-11-05T00:58:25.982Z,11.14
2017-11-05T00:59:32.506Z,11.17
2017-11-05T01:00:38.260Z,11.15
2017-11-05T01:01:44.045Z,11.16
2017-11-05T01:02:49.800Z,11.13
2017-11-05T01:03:55.563Z,11.13
2017-11-05T01:05:01.326Z,11.16
2017-11-05T01:06:07.092Z,11.17
2017-11-05T01:07:13.727Z,11.17
2017-11-05T01:08:20.321Z,11.19
2017-11-05T01:09:26.844Z,11.22
2017-11-05T01:10:32.605Z,11.22
2017-11-05T01:11:38.163Z,11.24
2017-11-05T01:12:43.960Z,11.25
2017-11-05T01:13:49.715Z,11.25
2017-11-05T01:14:55.466Z,11.26
2017-11-05T01:16:01.224Z,11.25
2017-11-05T01:17:07.748Z,11.26
2017-11-05T01:18:13.529Z,11.28
2017-11-05T01:19:20.049Z,11.31
2017-11-05T01:20:25.812Z,11.27
2017-11-05T01:21:32.336Z,11.28
2017-11-05T01:22:38.095Z,11.32
2017-11-05T01:23:43.881Z,11.30
2017-11-05T01:24:49.647Z,11.32
2017-11-05T01:25:55.405Z,11.31
2017-11-05T01:27:01.161Z,11.29
2017-11-05T01:28:06.918Z,11.30
2017-11-05T01:29:12.699Z,11.33
2017-11-05T01:30:18.458Z,11.33
2017-11-05T01:31:24.223Z,11.32
2017-11-05T01:32:29.780Z,11.33
2017-11-05T01:33:35.277Z,11.39
2017-11-05T01:34:41.079Z,11.37
2017-11-05T01:35:47.101Z,11.39
2017-11-05T01:36:52.853Z,11.42
2017-11-05T01:37:59.424Z,11.40
2017-11-05T01:39:05.031Z,11.38
2017-11-05T01:40:10.833Z,11.38
2017-11-05T01:41:16.611Z,11.42
2017-11-05T01:42:22.599Z,11.46
2017-11-05T01:43:29.182Z,11.50
2017-11-05T01:44:34.940Z,11.47
2017-11-05T01:45:40.739Z,11.51
2017-11-05T01:46:47.277Z,11.54
2017-11-05T01:47:53.033Z,11.55
2017-11-05T01:48:58.785Z,11.57
2017-11-05T01:50:04.997Z,11.54
2017-11-05T01:51:10.776Z,11.50
2017-11-05T01:52:16.525Z,11.51
2017-11-05T01:53:23.057Z,11.50
2017-11-05T01:54:28.816Z,11.58
2017-11-05T01:55:35.327Z,11.67
2017-11-05T01:56:41.182Z,11.69
2017-11-05T01:57:46.933Z,11.71
2017-11-05T01:58:52.688Z,11.69
2017-11-05T01:59:58.477Z,11.70
2017-11-05T02:01:04.232Z,11.73
2017-11-05T02:02:10.028Z,11.73
2017-11-05T02:03:15.805Z,11.77
2017-11-05T02:04:21.560Z,11.75
2017-11-05T02:05:26.619Z,11.75
2017-11-05T02:06:31.704Z,11.73
2017-11-05T02:07:37.127Z,11.74
2017-11-05T02:08:42.286Z,11.73
2017-11-05T02:09:47.458Z,11.63
2017-11-05T02:10:53.994Z,11.69
2017-11-05T02:11:59.754Z,11.63
2017-11-05T02:13:06.487Z,11.61
2017-11-05T02:14:12.260Z,11.58
2017-11-05T02:15:18.784Z,11.56
2017-11-05T02:16:24.738Z,11.52
2017-11-05T02:17:30.493Z,11.48
2017-11-05T02:18:36.273Z,11.40
2017-11-05T02:19:41.680Z,11.32
2017-11-05T02:20:47.855Z,11.24
2017-11-05T02:21:52.945Z,11.26
2017-11-05T02:22:58.006Z,11.23
2017-11-05T02:24:03.444Z,11.22
2017-11-05T02:25:08.519Z,11.25
2017-11-05T02:26:13.587Z,11.21
2017-11-05T02:27:19.361Z,11.14
2017-11-05T02:28:24.428Z,11.17
2017-11-05T02:29:30.636Z,11.21
2017-11-05T02:30:35.692Z,11.20
2017-11-05T02:31:40.760Z,11.19
2017-11-05T02:32:46.500Z,11.24
2017-11-05T02:33:52.257Z,11.20
2017-11-05T02:34:58.033Z,11.16
2017-11-05T02:36:02.882Z,11.13
2017-11-05T02:37:09.399Z,11.13
2017-11-05T02:38:15.144Z,11.13
2017-11-05T02:39:20.901Z,11.13
2017-11-05T02:40:26.684Z,11.12
2017-11-05T02:41:32.445Z,11.08
2017-11-05T02:42:38.193Z,11.07
2017-11-05T02:43:43.940Z,11.10
2017-11-05T02:44:49.002Z,11.10
2017-11-05T02:45:54.160Z,11.11
2017-11-05T02:46:59.271Z,11.09
2017-11-05T02:48:06.135Z,11.11
2017-11-05T02:49:12.313Z,11.10
2017-11-05T02:50:17.368Z,11.12
2017-11-05T02:51:22.969Z,11.08
2017-11-05T02:52:28.955Z,10.95
2017-11-05T02:53:34.130Z,10.93
2017-11-05T02:54:40.782Z,10.84
2017-11-05T02:55:46.630Z,10.83
2017-11-05T02:56:53.259Z,10.70
2017-11-05T02:57:59.118Z,10.64
2017-11-05T02:59:04.269Z,10.60
2017-11-05T03:00:10.265Z,10.57
2017-11-05T03:01:15.476Z,10.55
2017-11-05T03:02:20.928Z,10.48
2017-11-05T03:03:26.683Z,10.35
2017-11-05T03:04:32.501Z,10.38
2017-11-05T03:05:38.394Z,10.39
2017-11-05T03:06:45.021Z,10.41
2017-11-05T03:07:50.874Z,10.41
2017-11-05T03:08:56.365Z,10.39
2017-11-05T03:10:02.194Z,10.40
2017-11-05T03:11:08.362Z,10.39
2017-11-05T03:12:13.771Z,10.39
2017-11-05T03:13:19.615Z,10.46
2017-11-05T03:14:25.521Z,10.50
2017-11-05T03:15:30.572Z,10.47
2017-11-05T03:16:35.984Z,10.41
2017-11-05T03:17:41.035Z,10.38
2017-11-05T03:18:47.237Z,10.36
2017-11-05T03:19:52.646Z,10.32
2017-11-05T03:20:57.699Z,10.26
2017-11-05T03:22:02.758Z,10.29
2017-11-05T03:23:07.824Z,10.25
2017-11-05T03:24:12.907Z,10.22
2017-11-05T03:25:17.977Z,10.22
2017-11-05T03:26:23.032Z,10.23
2017-11-05T03:27:28.100Z,10.24
2017-11-05T03:28:33.944Z,10.24
2017-11-05T03:29:39.020Z,10.23
2017-11-05T03:30:44.443Z,10.24
2017-11-05T03:31:49.514Z,10.24
2017-11-05T03:32:54.572Z,10.26
2017-11-05T03:33:59.632Z,10.24
2017-11-05T03:35:04.773Z,10.29
2017-11-05T03:36:10.205Z,10.34
2017-11-05T03:37:15.944Z,10.31
2017-11-05T03:38:21.020Z,10.29
2017-11-05T03:39:26.846Z,10.30
2017-11-05T03:40:32.696Z,10.24
2017-11-05T03:41:38.527Z,10.15
2017-11-05T03:42:43.592Z,10.11
2017-11-05T03:43:48.663Z,10.10
2017-11-05T03:44:53.732Z,10.02
2017-11-05T03:45:59.154Z,9.98
2017-11-05T03:47:05.331Z,10.00
2017-11-05T03:48:10.721Z,9.96
2017-11-05T03:49:15.777Z,9.98
2017-11-05T03:50:21.176Z,9.92
2017-11-05T03:51:26.601Z,9.87
2017-11-05T03:52:32.001Z,9.90
2017-11-05T03:53:37.050Z,9.89
2017-11-05T03:54:41.858Z,9.89
2017-11-05T03:55:47.249Z,9.90
2017-11-05T03:56:52.681Z,9.97
2017-11-05T03:57:57.881Z,9.93
2017-11-05T03:59:03.282Z,9.94
2017-11-05T04:00:08.080Z,9.88
2017-11-05T04:01:12.892Z,9.90
2017-11-05T04:02:17.968Z,9.88
2017-11-05T04:03:23.030Z,9.84
2017-11-05T04:04:28.467Z,9.87
2017-11-05T04:05:33.526Z,9.82
2017-11-05T04:06:38.588Z,9.77
2017-11-05T04:07:43.672Z,9.78
2017-11-05T04:08:48.731Z,9.79
2017-11-05T04:09:53.785Z,9.78
2017-11-05T04:10:59.589Z,9.83
2017-11-05T04:12:04.653Z,9.76
2017-11-05T04:13:09.740Z,9.81
2017-11-05T04:14:15.154Z,9.78
2017-11-05T04:15:20.231Z,9.72
2017-11-05T04:16:26.760Z,9.77
2017-11-05T04:17:32.157Z,9.73
2017-11-05T04:18:37.942Z,9.73
2017-11-05T04:19:43.332Z,9.74
2017-11-05T04:20:48.398Z,9.75
2017-11-05T04:21:53.459Z,9.69
2017-11-05T04:22:59.276Z,9.66
2017-11-05T04:24:04.719Z,9.64
2017-11-05T04:25:10.087Z,9.62
2017-11-05T04:26:15.145Z,9.55
2017-11-05T04:27:20.544Z,9.58
2017-11-05T04:28:25.956Z,9.59
2017-11-05T04:29:32.163Z,9.55
2017-11-05T04:30:37.216Z,9.54
2017-11-05T04:31:42.273Z,9.60
2017-11-05T04:32:47.691Z,9.56
2017-11-05T04:33:53.509Z,9.57
2017-11-05T04:34:58.594Z,9.59
2017-11-05T04:36:03.653Z,9.62
2017-11-05T04:37:08.715Z,9.62
2017-11-05T04:38:14.720Z,9.65
2017-11-05T04:39:19.841Z,9.62
2017-11-05T04:40:25.612Z,9.64
2017-11-05T04:41:31.013Z,9.66
2017-11-05T04:42:36.429Z,9.72
2017-11-05T04:43:41.301Z,9.71
2017-11-05T04:44:47.112Z,9.72
2017-11-05T04:45:52.192Z,9.74
2017-11-05T04:46:57.749Z,9.75
2017-11-05T04:48:02.797Z,9.75
2017-11-05T04:49:08.364Z,9.71
2017-11-05T04:50:14.528Z,9.66
2017-11-05T04:51:20.729Z,9.67
2017-11-05T04:52:25.920Z,9.61
2017-11-05T04:53:31.321Z,9.56
2017-11-05T04:54:37.085Z,9.55
2017-11-05T04:55:43.277Z,9.57
2017-11-05T04:56:48.171Z,9.59
2017-11-05T04:57:53.727Z,9.60
2017-11-05T04:58:59.301Z,9.66
2017-11-05T05:00:04.448Z,9.65
2017-11-05T05:01:09.850Z,9.66
2017-11-05T05:02:14.935Z,9.63
2017-11-05T05:03:19.985Z,9.63
2017-11-05T05:04:25.052Z,9.65
2017-11-05T05:05:30.444Z,9.65
2017-11-05T05:06:35.490Z,9.69
2017-11-05T05:07:41.266Z,9.71
2017-11-05T05:08:47.089Z,9.77
2017-11-05T05:09:52.145Z,9.78
2017-11-05T05:10:57.543Z,9.77
2017-11-05T05:12:03.290Z,9.76
2017-11-05T05:13:08.367Z,9.77
2017-11-05T05:14:13.433Z,9.76
2017-11-05T05:15:18.493Z,9.74
2017-11-05T05:16:23.560Z,9.65
2017-11-05T05:17:28.961Z,9.65
2017-11-05T05:18:34.050Z,9.60
2017-11-05T05:19:39.596Z,9.56
2017-11-05T05:20:45.416Z,9.56
2017-11-05T05:21:50.812Z,9.54
2017-11-05T05:22:56.218Z,9.60
2017-11-05T05:24:02.406Z,9.58
2017-11-05T05:25:07.850Z,9.61
2017-11-05T05:26:13.296Z,9.68
2017-11-05T05:27:18.357Z,9.74
2017-11-05T05:28:24.168Z,9.65
2017-11-05T05:29:29.249Z,9.65
2017-11-05T05:30:34.305Z,9.69
2017-11-05T05:31:39.352Z,9.74
2017-11-05T05:32:45.086Z,9.73
2017-11-05T05:33:50.149Z,9.71
2017-11-05T05:34:56.353Z,9.71
2017-11-05T05:36:01.773Z,9.66
2017-11-05T05:37:07.532Z,9.71
2017-11-05T05:38:12.608Z,9.79
2017-11-05T05:39:18.013Z,9.82
2017-11-05T05:40:22.837Z,9.83
2017-11-05T05:41:27.908Z,9.88
2017-11-05T05:42:33.325Z,9.95
2017-11-05T05:43:38.728Z,9.97
2017-11-05T05:44:44.553Z,10.06
2017-11-05T05:45:49.647Z,10.12
2017-11-05T05:46:54.881Z,10.19
2017-11-05T05:47:59.931Z,10.25
2017-11-05T05:49:05.353Z,10.23
2017-11-05T05:50:11.100Z,10.21
2017-11-05T05:51:16.198Z,10.18
2017-11-05T05:52:21.855Z,10.18
2017-11-05T05:53:26.936Z,10.23
2017-11-05T05:54:32.761Z,10.20
2017-11-05T05:55:37.813Z,10.25
2017-11-05T05:56:43.245Z,10.23
2017-11-05T05:57:48.352Z,10.31
2017-11-05T05:58:54.168Z,10.40
2017-11-05T05:59:59.228Z,10.46
2017-11-05T06:01:05.046Z,10.48
2017-11-05T06:02:10.495Z,10.51
2017-11-05T06:03:15.549Z,10.55
2017-11-05T06:04:20.777Z,10.53
2017-11-05T06:05:25.836Z,10.55
2017-11-05T06:06:31.249Z,10.60
2017-11-05T06:07:36.337Z,10.62
2017-11-05T06:08:41.397Z,10.66
2017-11-05T06:09:46.488Z,10.74
2017-11-05T06:10:52.333Z,10.79
2017-11-05T06:11:58.849Z,10.87
2017-11-05T06:13:04.317Z,10.94
2017-11-05T06:14:09.398Z,11.02
2017-11-05T06:15:14.456Z,11.08
2017-11-05T06:16:19.860Z,11.05
2017-11-05T06:17:25.135Z,11.07
2017-11-05T06:18:31.003Z,11.09
2017-11-05T06:19:36.416Z,11.14
2017-11-05T06:20:42.257Z,11.11
2017-11-05T06:21:48.436Z,11.10
2017-11-05T06:22:53.493Z,11.12
2017-11-05T06:23:58.588Z,11.12
2017-11-05T06:25:03.653Z,11.16
2017-11-05T06:26:09.396Z,11.16
2017-11-05T06:27:14.457Z,11.13
2017-11-05T06:28:20.637Z,11.16
2017-11-05T06:29:25.729Z,11.15
2017-11-05T06:30:31.557Z,11.11
2017-11-05T06:31:37.321Z,11.11
2017-11-05T06:32:43.140Z,11.14
2017-11-05T06:33:48.208Z,11.16
2017-11-05T06:34:53.648Z,11.07
2017-11-05T06:35:59.056Z,11.11
2017-11-05T06:37:04.884Z,11.15
2017-11-05T06:38:09.953Z,11.12
2017-11-05T06:39:15.022Z,11.09
2017-11-05T06:40:20.112Z,11.13
2017-11-05T06:41:25.171Z,11.18
2017-11-05T06:42:30.243Z,11.26
2017-11-05T06:43:35.304Z,11.25
2017-11-05T06:44:40.359Z,11.27
2017-11-05T06:45:45.465Z,11.23
2017-11-05T06:46:50.869Z,11.20
2017-11-05T06:47:55.949Z,11.26
2017-11-05T06:49:01.352Z,11.23
2017-11-05T06:50:06.762Z,11.19
2017-11-05T06:51:12.192Z,11.25
2017-11-05T06:52:17.254Z,11.34
2017-11-05T06:53:22.665Z,11.38
2017-11-05T06:54:27.725Z,11.47
2017-11-05T06:55:33.152Z,11.44
2017-11-05T06:56:39.129Z,11.49
2017-11-05T06:57:45.649Z,11.51
2017-11-05T06:58:50.709Z,11.49
2017-11-05T06:59:56.542Z,11.52
2017-11-05T07:01:01.372Z,11.52
2017-11-05T07:02:07.229Z,11.49
2017-11-05T07:03:12.289Z,11.42
2017-11-05T07:04:17.703Z,11.49
2017-11-05T07:05:22.784Z,11.48
2017-11-05T07:06:28.109Z,11.52
2017-11-05T07:07:33.204Z,11.51
2017-11-05T07:08:38.972Z,11.56
2017-11-05T07:09:44.382Z,11.58
2017-11-05T07:10:49.445Z,11.58
2017-11-05T07:11:55.188Z,11.62
2017-11-05T07:13:01.190Z,11.65
2017-11-05T07:14:06.309Z,11.69
2017-11-05T07:15:11.120Z,11.74
2017-11-05T07:16:16.209Z,11.69
2017-11-05T07:17:22.037Z,11.63
2017-11-05T07:18:27.844Z,11.71
2017-11-05T07:19:32.908Z,11.78
2017-11-05T07:20:37.969Z,11.84
2017-11-05T07:21:43.376Z,11.90
2017-11-05T07:22:49.210Z,11.98
2017-11-05T07:23:54.304Z,11.97
2017-11-05T07:24:59.717Z,11.94
2017-11-05T07:26:05.125Z,11.98
2017-11-05T07:27:10.969Z,11.93
2017-11-05T07:28:17.153Z,11.96
2017-11-05T07:29:22.612Z,11.92
2017-11-05T07:30:27.672Z,11.90
2017-11-05T07:31:33.499Z,11.97
2017-11-05T07:32:38.566Z,11.97
2017-11-05T07:33:43.975Z,11.87
2017-11-05T07:34:49.127Z,11.89
2017-11-05T07:35:54.569Z,11.93
2017-11-05T07:36:59.982Z,12.01
2017-11-05T07:38:06.526Z,12.05
2017-11-05T07:39:11.842Z,12.09
2017-11-05T07:40:16.929Z,12.05
2017-11-05T07:41:22.361Z,12.07
2017-11-05T07:42:27.429Z,12.02
2017-11-05T07:43:32.492Z,11.99
2017-11-05T07:44:37.558Z,11.99
2017-11-05T07:45:42.666Z,11.97
2017-11-05T07:46:47.734Z,12.01
2017-11-05T07:47:52.804Z,12.00
2017-11-05T07:48:58.238Z,12.04
2017-11-05T07:50:03.330Z,12.11
2017-11-05T07:51:09.188Z,12.14
2017-11-05T07:52:15.353Z,12.22
2017-11-05T07:53:20.809Z,12.23
2017-11-05T07:54:26.224Z,12.26
2017-11-05T07:55:31.083Z,12.31
2017-11-05T07:56:35.973Z,12.35
2017-11-05T07:57:41.038Z,12.43
2017-11-05T07:58:46.452Z,12.34
2017-11-05T07:59:51.521Z,12.32
2017-11-05T08:00:57.361Z,12.39
2017-11-05T08:02:03.232Z,12.45
2017-11-05T08:03:08.665Z,12.54
2017-11-05T08:04:13.540Z,12.50
2017-11-05T08:05:18.621Z,12.44
2017-11-05T08:06:24.024Z,12.50
2017-11-05T08:07:29.872Z,12.44
2017-11-05T08:08:36.416Z,12.38
2017-11-05T08:09:42.977Z,12.41
2017-11-05T08:10:48.621Z,12.37
2017-11-05T08:11:54.457Z,12.39
2017-11-05T08:13:00.464Z,12.35
2017-11-05T08:14:05.540Z,12.26
2017-11-05T08:15:11.816Z,12.25
2017-11-05T08:16:16.890Z,12.26
2017-11-05T08:17:21.950Z,12.33
2017-11-05T08:18:27.403Z,12.31
2017-11-05T08:19:32.494Z,12.34
2017-11-05T08:20:37.595Z,12.29
2017-11-05T08:21:42.654Z,12.26
2017-11-05T08:22:48.828Z,12.21
2017-11-05T08:23:54.261Z,12.22
2017-11-05T08:24:59.340Z,12.28
2017-11-05T08:26:05.086Z,12.36
2017-11-05T08:27:10.846Z,12.44
2017-11-05T08:28:17.393Z,12.54
2017-11-05T08:29:23.175Z,12.63
2017-11-05T08:30:28.941Z,12.63
2017-11-05T08:31:34.694Z,12.71
2017-11-05T08:32:40.467Z,12.78
2017-11-05T08:33:46.034Z,12.79
2017-11-05T08:34:51.847Z,12.77
2017-11-05T08:35:58.386Z,12.81
2017-11-05T08:37:04.148Z,12.79
2017-11-05T08:38:09.892Z,12.78
2017-11-05T08:39:16.434Z,12.74
2017-11-05T08:40:21.534Z,12.79
2017-11-05T08:41:26.608Z,12.85
2017-11-05T08:42:32.428Z,12.72
2017-11-05T08:43:37.851Z,12.66
2017-11-05T08:44:43.628Z,12.64
2017-11-05T08:45:50.189Z,12.48
2017-11-05T08:46:56.709Z,12.56
2017-11-05T08:48:02.124Z,12.62
2017-11-05T08:49:07.881Z,12.52
2017-11-05T08:50:13.042Z,12.51
2017-11-05T08:51:19.584Z,12.54
2017-11-05T08:52:25.340Z,12.52
2017-11-05T08:53:31.093Z,12.57
2017-11-05T08:54:37.627Z,12.55
2017-11-05T08:55:43.386Z,12.59
2017-11-05T08:56:49.936Z,12.61
2017-11-05T08:57:55.689Z,12.64
2017-11-05T08:59:02.220Z,12.75
2017-11-05T09:00:08.030Z,12.76
2017-11-05T09:01:13.117Z,12.76
2017-11-05T09:02:18.548Z,12.72
2017-11-05T09:03:23.609Z,12.56
2017-11-05T09:04:29.041Z,12.57
2017-11-05T09:05:34.796Z,12.65
2017-11-05T09:06:40.597Z,12.71
2017-11-05T09:07:47.135Z,12.68
2017-11-05T09:08:52.893Z,12.66
2017-11-05T09:09:59.444Z,12.73
2017-11-05T09:11:04.554Z,12.62
2017-11-05T09:12:09.976Z,12.71
2017-11-05T09:13:15.769Z,12.73
2017-11-05T09:14:22.337Z,12.76
2017-11-05T09:15:28.092Z,12.86
2017-11-05T09:16:33.844Z,12.97
2017-11-05T09:17:39.614Z,13.08
2017-11-05T09:18:45.388Z,13.20
2017-11-05T09:19:51.912Z,13.28
2017-11-05T09:20:57.684Z,13.37
2017-11-05T09:22:03.435Z,13.30
2017-11-05T09:23:09.961Z,13.41
2017-11-05T09:24:15.785Z,13.51
2017-11-05T09:25:21.197Z,13.53
2017-11-05T09:26:26.270Z,13.61
2017-11-05T09:27:32.021Z,13.63
2017-11-05T09:28:37.772Z,13.68
2017-11-05T09:29:44.322Z,13.70
2017-11-05T09:30:50.120Z,13.64
2017-11-05T09:31:55.689Z,13.52
2017-11-05T09:33:01.458Z,13.49
2017-11-05T09:34:07.803Z,13.37
2017-11-05T09:35:13.788Z,13.39
2017-11-05T09:36:19.553Z,13.43
2017-11-05T09:37:25.313Z,13.42
2017-11-05T09:38:31.076Z,13.43
2017-11-05T09:39:36.845Z,13.38
2017-11-05T09:40:42.622Z,13.39
2017-11-05T09:41:48.388Z,13.44
2017-11-05T09:42:54.151Z,13.42
2017-11-05T09:44:00.677Z,13.35
2017-11-05T09:45:06.463Z,13.45
2017-11-05T09:46:13.004Z,13.57
2017-11-05T09:47:19.529Z,13.64
2017-11-05T09:48:25.297Z,13.71
2017-11-05T09:49:31.069Z,13.82
2017-11-05T09:50:36.829Z,13.91
2017-11-05T09:51:42.625Z,13.99
2017-11-05T09:52:48.380Z,14.01
2017-11-05T09:53:54.136Z,14.09
2017-11-05T09:54:59.893Z,14.09
2017-11-05T09:56:05.664Z,14.11
2017-11-05T09:57:11.441Z,14.14
2017-11-05T09:58:17.960Z,14.12
2017-11-05T09:59:23.716Z,14.13
2017-11-05T10:00:29.472Z,14.13
2017-11-05T10:01:35.232Z,14.14
2017-11-05T10:02:42.020Z,14.14
2017-11-05T10:03:47.786Z,14.13
2017-11-05T10:04:53.585Z,14.11
2017-11-05T10:06:00.114Z,14.07
2017-11-05T10:07:05.901Z,14.00
2017-11-05T10:08:11.707Z,14.07
2017-11-05T10:09:17.499Z,14.06
2017-11-05T10:10:23.267Z,14.11
2017-11-05T10:11:29.024Z,14.18
2017-11-05T10:12:34.784Z,14.25
2017-11-05T10:13:40.698Z,14.34
2017-11-05T10:14:46.495Z,14.38
2017-11-05T10:15:53.010Z,14.39
2017-11-05T10:16:59.071Z,14.39
2017-11-05T10:18:04.238Z,14.28
2017-11-05T10:19:10.030Z,14.27
2017-11-05T10:20:15.114Z,14.35
2017-11-05T10:21:20.894Z,14.37
2017-11-05T10:22:26.674Z,14.28
2017-11-05T10:23:33.199Z,14.37
2017-11-05T10:24:39.034Z,14.45
2017-11-05T10:25:44.913Z,14.55
2017-11-05T10:26:50.700Z,14.59
2017-11-05T10:27:56.455Z,14.59
2017-11-05T10:29:02.709Z,14.65
2017-11-05T10:30:08.520Z,14.72
2017-11-05T10:31:14.281Z,14.84
2017-11-05T10:32:20.056Z,14.90
2017-11-05T10:33:25.976Z,14.85
2017-11-05T10:34:31.960Z,14.83
2017-11-05T10:35:38.668Z,14.83
2017-11-05T10:36:44.562Z,14.66
2017-11-05T10:37:51.947Z,14.64
2017-11-05T10:38:58.536Z,14.72
2017-11-05T10:40:05.119Z,14.70
2017-11-05T10:41:10.941Z,14.73
2017-11-05T10:42:16.573Z,14.65
2017-11-05T10:43:22.376Z,14.65
2017-11-05T10:44:28.158Z,14.66
2017-11-05T10:45:33.940Z,14.66
2017-11-05T10:46:39.886Z,14.58
2017-11-05T10:47:45.653Z,14.67
2017-11-05T10:48:51.412Z,14.63
2017-11-05T10:49:57.177Z,14.75
2017-11-05T10:51:03.059Z,14.84
2017-11-05T10:52:08.847Z,14.84
2017-11-05T10:53:15.455Z,14.74
2017-11-05T10:54:21.312Z,14.76
2017-11-05T10:55:26.931Z,14.65
2017-11-05T10:56:32.738Z,14.69
2017-11-05T10:57:38.520Z,14.61
2017-11-05T10:58:44.298Z,14.57
2017-11-05T10:59:50.055Z,14.50
2017-11-05T11:00:56.581Z,14.44
2017-11-05T11:02:02.182Z,14.27
2017-11-05T11:03:08.163Z,14.36
2017-11-05T11:04:13.931Z,14.32
2017-11-05T11:05:19.783Z,14.35
2017-11-05T11:06:26.389Z,14.41
2017-11-05T11:07:32.247Z,14.46
2017-11-05T11:08:38.044Z,14.51
2017-11-05T11:09:43.856Z,14.57
2017-11-05T11:10:49.758Z,14.56
2017-11-05T11:11:55.526Z,14.59
2017-11-05T11:13:01.282Z,14.60
2017-11-05T11:14:07.098Z,14.65
2017-11-05T11:15:12.861Z,14.73
2017-11-05T11:16:18.628Z,14.82
2017-11-05T11:17:25.152Z,14.83
2017-11-05T11:18:30.923Z,14.92
2017-11-05T11:19:36.709Z,14.95
2017-11-05T11:20:42.485Z,15.09
2017-11-05T11:21:48.243Z,15.16
2017-11-05T11:22:53.997Z,15.23
2017-11-05T11:24:00.533Z,15.25
2017-11-05T11:25:06.349Z,15.41
2017-11-05T11:26:12.157Z,15.42
2017-11-05T11:27:17.925Z,15.51
2017-11-05T11:28:23.715Z,15.54
2017-11-05T11:29:29.479Z,15.65
2017-11-05T11:30:35.285Z,15.77
2017-11-05T11:31:41.066Z,15.87
2017-11-05T11:32:46.835Z,15.94
2017-11-05T11:33:52.610Z,16.01
2017-11-05T11:34:58.402Z,16.08
2017-11-05T11:36:04.188Z,16.04
2017-11-05T11:37:09.937Z,16.05
2017-11-05T11:38:15.723Z,16.04
2017-11-05T11:39:21.735Z,16.07
2017-11-05T11:40:27.574Z,16.07
2017-11-05T11:41:34.150Z,16.09
2017-11-05T11:42:39.917Z,16.02
2017-11-05T11:43:45.741Z,16.05
2017-11-05T11:44:52.330Z,16.03
2017-11-05T11:45:58.085Z,15.99
2017-11-05T11:47:03.939Z,15.91
2017-11-05T11:48:09.739Z,15.86
2017-11-05T11:49:16.274Z,15.82
2017-11-05T11:50:22.045Z,15.81
2017-11-05T11:51:27.806Z,15.83
2017-11-05T11:52:33.657Z,15.83
2017-11-05T11:53:39.413Z,15.84
2017-11-05T11:54:45.278Z,15.84
2017-11-05T11:55:51.075Z,15.90
2017-11-05T11:56:56.843Z,15.88
2017-11-05T11:58:02.771Z,15.81
2017-11-05T11:59:08.557Z,15.87
2017-11-05T12:00:13.653Z,15.81
2017-11-05T12:01:19.074Z,15.80
2017-11-05T12:02:24.979Z,15.86
2017-11-05T12:03:30.867Z,15.85
2017-11-05T12:04:35.933Z,15.83
2017-11-05T12:05:41.382Z,15.86
2017-11-05T12:06:47.928Z,15.88
2017-11-05T12:07:53.732Z,15.84
2017-11-05T12:08:59.627Z,15.87
2017-11-05T12:10:05.557Z,15.87
2017-11-05T12:11:11.827Z,15.94
2017-11-05T12:12:17.691Z,15.94
2017-11-05T12:13:23.603Z,15.96
2017-11-05T12:14:29.424Z,15.95
2017-11-05T12:15:35.189Z,15.99
2017-11-05T12:16:40.765Z,16.03
2017-11-05T12:17:46.630Z,16.00
2017-11-05T12:18:52.411Z,16.00
2017-11-05T12:19:58.286Z,15.93
2017-11-05T12:21:04.414Z,15.92
2017-11-05T12:22:11.035Z,15.94
2017-11-05T12:23:16.930Z,15.87
2017-11-05T12:24:22.726Z,15.83
2017-11-05T12:25:28.703Z,15.79
2017-11-05T12:26:35.317Z,15.78
2017-11-05T12:27:41.316Z,15.70
2017-11-05T12:28:46.928Z,15.62
2017-11-05T12:29:52.745Z,15.67
2017-11-05T12:30:58.357Z,15.69
2017-11-05T12:32:04.143Z,15.63
2017-11-05T12:33:10.858Z,15.64
2017-11-05T12:34:17.484Z,15.82
2017-11-05T12:35:24.230Z,15.63
2017-11-05T12:36:30.153Z,15.61
2017-11-05T12:37:35.996Z,15.59
2017-11-05T12:38:41.891Z,15.51
2017-11-05T12:39:47.680Z,15.47
2017-11-05T12:40:53.698Z,15.45
2017-11-05T12:41:59.787Z,15.41
2017-11-05T12:43:05.652Z,15.38
2017-11-05T12:44:11.378Z,15.29
2017-11-05T12:45:16.859Z,15.30
2017-11-05T12:46:23.497Z,15.28
2017-11-05T12:47:29.503Z,15.29
2017-11-05T12:48:36.297Z,15.27
2017-11-05T12:49:42.178Z,15.27
2017-11-05T12:50:49.571Z,15.33
2017-11-05T12:51:56.603Z,15.29
2017-11-05T12:53:02.626Z,15.31
2017-11-05T12:54:08.655Z,15.20
2017-11-05T12:55:14.618Z,15.15
2017-11-05T12:56:20.549Z,15.14
2017-11-05T12:57:27.135Z,15.34
2017-11-05T12:58:33.130Z,15.22
2017-11-05T12:59:39.071Z,15.13
2017-11-05T13:00:47.040Z,15.08
2017-11-05T13:01:52.928Z,14.94
2017-11-05T13:02:58.853Z,14.84
2017-11-05T13:04:05.675Z,14.81
2017-11-05T13:05:11.601Z,14.77
2017-11-05T13:06:17.660Z,14.70
2017-11-05T13:07:23.580Z,14.56
2017-11-05T13:08:29.347Z,14.59
2017-11-05T13:09:35.221Z,14.57
2017-11-05T13:10:40.985Z,14.53
2017-11-05T13:11:46.524Z,14.45
2017-11-05T13:12:52.287Z,14.44
2017-11-05T13:13:58.810Z,14.44
2017-11-05T13:15:04.417Z,14.39
2017-11-05T13:16:10.189Z,14.33
2017-11-05T13:17:16.373Z,14.30
2017-11-05T13:18:22.583Z,14.27
2017-11-05T13:19:28.563Z,14.23
2017-11-05T13:20:34.504Z,14.19
2017-11-05T13:21:40.421Z,14.16
2017-11-05T13:22:47.252Z,14.13
2017-11-05T13:23:54.042Z,14.09
2017-11-05T13:24:59.981Z,14.03
2017-11-05T13:26:06.456Z,14.01
2017-11-05T13:27:12.477Z,13.97
2017-11-05T13:28:18.480Z,13.94
2017-11-05T13:29:24.424Z,13.93
2017-11-05T13:30:31.125Z,13.90
2017-11-05T13:31:37.267Z,13.85
2017-11-05T13:32:43.327Z,13.79
2017-11-05T13:33:49.350Z,13.77
2017-11-05T13:34:56.115Z,13.77
2017-11-05T13:36:02.157Z,13.75
2017-11-05T13:37:08.806Z,13.73
2017-11-05T13:38:14.719Z,13.70
2017-11-05T13:39:20.630Z,13.70
2017-11-05T13:40:26.467Z,13.66
2017-11-05T13:41:33.074Z,13.68
2017-11-05T13:42:39.136Z,13.66
2017-11-05T13:43:45.081Z,13.65
2017-11-05T13:44:51.182Z,13.62
2017-11-05T13:45:58.116Z,13.63
2017-11-05T13:47:03.896Z,13.60
2017-11-05T13:48:09.925Z,13.55
2017-11-05T13:49:16.701Z,13.52
2017-11-05T13:50:23.095Z,13.52
2017-11-05T13:51:29.027Z,13.51
2017-11-05T13:52:34.906Z,13.49
2017-11-05T13:53:40.744Z,13.51
2017-11-05T13:54:46.599Z,13.45
2017-11-05T13:55:52.592Z,13.46
2017-11-05T13:56:58.603Z,13.48
2017-11-05T13:58:04.549Z,13.44
2017-11-05T13:59:10.596Z,13.46
2017-11-05T14:00:18.116Z,13.46
2017-11-05T14:01:24.520Z,13.49
2017-11-05T14:02:30.280Z,13.50
2017-11-05T14:03:36.080Z,13.49
2017-11-05T14:04:42.399Z,13.48
2017-11-05T14:05:49.219Z,13.49
2017-11-05T14:06:54.859Z,13.50
2017-11-05T14:08:00.663Z,13.47
2017-11-05T14:09:05.890Z,13.49
2017-11-05T14:10:11.861Z,13.47